• Join FlightAware (Why Join?)
  • Login
  • US Flag 
03:19AM EDT


 

Airport Tracker/Info


-or-


 

Live Flight TrackerFlight Track Log ✈ N779NC ✈ 28-Jun-2013 ✈ KLIT - KATL

Flight Track Log - Related Links

Times and Time Zones

All times are in EDT time to prevent confusion due to time zone crossing. See the N779NC flight status page for this flight to view local times or setup timezone preferences in your user account.

Time Position Orientation Groundspeed Altitude Reporting Facility
EDT Latitude Longitude Course Direction KTS MPH feet Rate Location/Type
04:48PM 34.7394 -92.1919 79° East 176 203 1,000  Level Memphis Center
04:49PM 34.7344 -92.0958 94° East 232 267 3,100 1,500 Climbing Memphis Center
04:50PM 34.7147 -92.0144 106° East 262 302 4,700 1,680 Climbing Memphis Center
04:51PM 34.7384 -91.7362 78° East  Level FlightAware Approximate
04:51PM 34.7219 -91.9364 84° East 285 328 6,100  Level Memphis Center
04:52PM 34.7599 -91.6073 78° East  Level FlightAware Approximate
04:52PM 34.7294 -91.8431 84° East 294 338 8,000  Level Memphis Center
04:53PM 34.7814 -91.4783 79° East  Level FlightAware Approximate
04:53PM 34.7431 -91.7447 80° East 301 346 9,900  Level Memphis Center
04:54PM 34.7611 -91.6286 79° East 323 372 10,900 1,200 Climbing Memphis Center
04:55PM 34.7789 -91.5025 80° East 361 415 12,300 1,560 Climbing Memphis Center
04:56PM 34.8008 -91.3739 78° East 384 442 14,100 1,620 Climbing Memphis Center
04:57PM 34.8061 -91.2372 87° East 394 453 15,600 1,500 Climbing Memphis Center
04:58PM 34.7986 -91.0981 94° East 404 465 17,200 1,620 Climbing Memphis Center
04:59PM 34.7911 -90.9539 94° East 416 479 18,900 1,440 Climbing Memphis Center
05:00PM 34.8103 -90.8300 79° East 416 479 20,100 1,140 Climbing Memphis Center
05:01PM 34.8442 -90.6961 73° East 416 479 21,200 1,080 Climbing Memphis Center
05:02PM 34.8717 -90.5519 77° East 421 484 22,300 1,020 Climbing Memphis Center
05:03PM 34.9050 -90.4078 74° East 430 495 23,300 900 Climbing Memphis Center
05:04PM 34.9489 -90.2708 69° East 436 502 24,200 900 Climbing Memphis Center
05:05PM 35.0489 -90.1719 39° Northeast 413 475 25,100 780 Climbing Memphis Center
05:06PM 35.1700 -90.1564 North 401 461 25,800 720 Climbing Memphis Center
05:07PM 35.2844 -90.1078 19° North 418 481 26,600 720 Climbing Memphis Center
05:08PM 35.3489 -89.9728 60° Northeast 426 490 27,300 600 Climbing Memphis Center
05:09PM 35.3275 -89.8072 99° East 410 472 27,800 780 Climbing Memphis Center
05:10PM 35.3056 -89.6447 99° East 469 540 28,900 780 Climbing Memphis Center
05:11PM 35.2817 -89.4947 101° East 483 556 29,400 480 Climbing Memphis Center
05:12PM 35.2492 -89.3325 104° East 491 565 29,900 420 Climbing Memphis Center
05:13PM 35.2081 -89.1678 107° East 491 565 30,300 420 Climbing Memphis Center
05:14PM 35.1669 -89.0058 107° East 497 572 30,800 300 Climbing Memphis Center
05:15PM 35.1189 -88.8264 108° East 502 578 31,000 60 Climbing Memphis Center
05:16PM 35.0769 -88.6622 107° East 502 578 31,000  Level Memphis Center
05:17PM 35.0350 -88.5006 108° East 495 570 31,000  Level Memphis Center
05:18PM 34.9975 -88.3594 108° East 490 564 31,000  Level Memphis Center
05:19PM 34.9553 -88.2008 108° East 490 564 31,000  Level Memphis Center
05:20PM 34.9122 -88.0147 106° East 511 588 31,000  Level Memphis Center
05:21PM 34.8692 -87.8486 107° East 506 582 31,000  Level Memphis Center
05:22PM 34.8283 -87.6881 107° East 495 570 31,000  Level Memphis Center
05:23PM 34.7981 -87.5425 104° East 495 570 31,000  Level Memphis Center
05:26PM 34.6717 -87.0494 107° East 506 582 31,000 -60 Level Atlanta Center
05:27PM 34.6317 -86.8839 106° East 506 582 30,800 -300 Descending Atlanta Center
05:28PM 34.6031 -86.7642 106° East 489 563 30,500 -600 Descending Atlanta Center
05:29PM 34.6064 -86.6078 88° East 442 509 29,700 -1,020 Descending Atlanta Center
05:30PM 34.6342 -86.4750 76° East 417 480 28,500 -1,200 Descending Atlanta Center
05:31PM 34.6283 -86.3408 93° East 400 460 27,400 -1,140 Descending Atlanta Center
05:32PM 34.5828 -86.2111 113° Southeast 395 455 26,300 -1,020 Descending Atlanta Center
05:33PM 34.5267 -86.0761 117° Southeast 418 481 25,400 -900 Descending Atlanta Center
05:34PM 34.4703 -85.9411 117° Southeast 428 493 24,600 -720 Descending Atlanta Center
05:35PM 34.4142 -85.7939 115° Southeast 438 504 24,000 -300 Descending Atlanta Center
05:36PM 34.3719 -85.6747 113° Southeast 427 491 24,000 -600 Level Atlanta Center
05:37PM 34.3339 -85.5531 111° Southeast 406 467 22,900 -1,560 Descending Atlanta Center
05:38PM 34.2914 -85.4367 114° Southeast 385 443 20,900 -1,980 Descending Atlanta Center
05:39PM 34.2447 -85.3253 117° Southeast 366 421 19,000 -2,100 Descending Atlanta Center
05:40PM 34.1978 -85.2217 119° Southeast 355 409 16,800 -2,100 Descending Atlanta Center
05:41PM 34.1528 -85.1231 119° Southeast 344 396 14,900 -1,500 Descending Atlanta Center
05:42PM 34.1011 -85.0347 125° Southeast 331 381 13,900 -1,200 Descending Atlanta Center
05:43PM 34.0311 -84.9411 132° Southeast 333 383 12,600 -960 Descending Atlanta Center
05:44PM 33.9606 -84.8503 133° Southeast 353 406 12,000 -300 Descending Atlanta Center
05:45PM 33.8881 -84.7619 135° Southeast 361 415 12,000  Level Atlanta Center
05:46PM 33.8136 -84.6764 136° Southeast 366 421 12,000  Level Atlanta Center
05:47PM 33.7533 -84.5961 132° Southeast 348 400 12,000 -960 Level Atlanta Center
05:48PM 33.7369 -84.5108 103° East 262 302 10,100 -2,100 Descending Atlanta Center
05:49PM 33.7331 -84.4211 93° East 278 320 7,800 -2,160 Descending Atlanta Center
05:50PM 33.7333 -84.2833 90° East 267 307 4,900 -1,560 Descending Atlanta TRACON
05:51PM 33.7167 -84.2000 103° East 239 275 4,100 -600 Descending Atlanta TRACON
05:52PM 33.6667 -84.2000 180° South 202 232 3,800 -300 Descending Atlanta TRACON